sensor_id;sensor_type;location;lat;lon;timestamp;P1;durP1;ratioP1;P2;durP2;ratioP2
10347;SDS011;5220;43.192;23.284;2023-06-10T00:00:26;5.20;;;3.35;;
10347;SDS011;5220;43.192;23.284;2023-06-10T00:02:54;7.35;;;3.85;;
10347;SDS011;5220;43.192;23.284;2023-06-10T00:05:21;6.93;;;3.55;;
10347;SDS011;5220;43.192;23.284;2023-06-10T00:07:48;5.95;;;4.00;;
10347;SDS011;5220;43.192;23.284;2023-06-10T00:10:14;8.35;;;4.50;;
10347;SDS011;5220;43.192;23.284;2023-06-10T00:12:41;6.43;;;3.90;;
10347;SDS011;5220;43.192;23.284;2023-06-10T00:15:09;9.10;;;4.57;;
10347;SDS011;5220;43.192;23.284;2023-06-10T00:17:36;5.97;;;3.85;;
10347;SDS011;5220;43.192;23.284;2023-06-10T00:20:06;8.40;;;4.05;;
10347;SDS011;5220;43.192;23.284;2023-06-10T00:22:34;11.57;;;4.80;;
10347;SDS011;5220;43.192;23.284;2023-06-10T00:25:01;8.00;;;4.65;;
10347;SDS011;5220;43.192;23.284;2023-06-10T00:27:29;11.02;;;5.70;;
10347;SDS011;5220;43.192;23.284;2023-06-10T00:30:00;8.25;;;4.78;;
10347;SDS011;5220;43.192;23.284;2023-06-10T00:32:27;9.32;;;5.30;;
10347;SDS011;5220;43.192;23.284;2023-06-10T00:34:53;8.63;;;5.10;;
10347;SDS011;5220;43.192;23.284;2023-06-10T00:37:21;7.40;;;4.57;;
10347;SDS011;5220;43.192;23.284;2023-06-10T00:39:48;5.43;;;4.82;;
10347;SDS011;5220;43.192;23.284;2023-06-10T00:42:15;12.63;;;5.47;;
10347;SDS011;5220;43.192;23.284;2023-06-10T00:44:42;10.35;;;4.75;;
10347;SDS011;5220;43.192;23.284;2023-06-10T00:47:08;8.05;;;4.45;;
10347;SDS011;5220;43.192;23.284;2023-06-10T00:49:35;11.23;;;4.80;;
10347;SDS011;5220;43.192;23.284;2023-06-10T00:52:02;5.53;;;4.72;;
10347;SDS011;5220;43.192;23.284;2023-06-10T00:54:32;10.00;;;4.63;;
10347;SDS011;5220;43.192;23.284;2023-06-10T00:57:00;9.75;;;5.05;;
10347;SDS011;5220;43.192;23.284;2023-06-10T00:59:27;8.02;;;5.05;;
10347;SDS011;5220;43.192;23.284;2023-06-10T01:01:55;4.82;;;4.25;;
10347;SDS011;5220;43.192;23.284;2023-06-10T01:04:22;5.75;;;4.25;;
10347;SDS011;5220;43.192;23.284;2023-06-10T01:06:52;7.82;;;4.80;;
10347;SDS011;5220;43.192;23.284;2023-06-10T01:09:25;6.35;;;4.20;;
10347;SDS011;5220;43.192;23.284;2023-06-10T01:12:01;9.10;;;4.72;;
10347;SDS011;5220;43.192;23.284;2023-06-10T01:14:35;12.13;;;5.30;;
10347;SDS011;5220;43.192;23.284;2023-06-10T01:17:03;9.50;;;4.63;;
10347;SDS011;5220;43.192;23.284;2023-06-10T01:19:32;7.43;;;4.45;;
10347;SDS011;5220;43.192;23.284;2023-06-10T01:22:00;9.88;;;5.25;;
10347;SDS011;5220;43.192;23.284;2023-06-10T01:24:27;7.60;;;5.55;;
10347;SDS011;5220;43.192;23.284;2023-06-10T01:26:58;6.35;;;5.05;;
10347;SDS011;5220;43.192;23.284;2023-06-10T01:29:28;6.43;;;4.40;;
10347;SDS011;5220;43.192;23.284;2023-06-10T01:32:01;8.50;;;4.25;;
10347;SDS011;5220;43.192;23.284;2023-06-10T01:34:34;12.75;;;4.47;;
10347;SDS011;5220;43.192;23.284;2023-06-10T01:37:04;8.45;;;5.15;;
10347;SDS011;5220;43.192;23.284;2023-06-10T01:39:31;11.38;;;4.55;;
10347;SDS011;5220;43.192;23.284;2023-06-10T01:41:58;8.77;;;5.03;;
10347;SDS011;5220;43.192;23.284;2023-06-10T01:44:27;6.78;;;4.75;;
10347;SDS011;5220;43.192;23.284;2023-06-10T01:46:54;6.55;;;4.40;;
10347;SDS011;5220;43.192;23.284;2023-06-10T01:49:20;5.60;;;4.50;;
10347;SDS011;5220;43.192;23.284;2023-06-10T01:51:49;8.82;;;4.82;;
10347;SDS011;5220;43.192;23.284;2023-06-10T01:54:17;7.40;;;4.45;;
10347;SDS011;5220;43.192;23.284;2023-06-10T01:56:43;7.32;;;4.28;;
10347;SDS011;5220;43.192;23.284;2023-06-10T01:59:10;9.30;;;4.75;;
10347;SDS011;5220;43.192;23.284;2023-06-10T02:01:37;8.35;;;3.92;;
10347;SDS011;5220;43.192;23.284;2023-06-10T02:04:03;6.45;;;4.30;;
10347;SDS011;5220;43.192;23.284;2023-06-10T02:06:30;5.60;;;4.63;;
10347;SDS011;5220;43.192;23.284;2023-06-10T02:08:57;5.07;;;4.30;;
10347;SDS011;5220;43.192;23.284;2023-06-10T02:11:25;8.05;;;4.60;;
10347;SDS011;5220;43.192;23.284;2023-06-10T02:13:52;5.65;;;4.30;;
10347;SDS011;5220;43.192;23.284;2023-06-10T02:16:18;7.22;;;4.20;;
10347;SDS011;5220;43.192;23.284;2023-06-10T02:18:46;4.82;;;3.65;;
10347;SDS011;5220;43.192;23.284;2023-06-10T02:21:13;6.65;;;4.82;;
10347;SDS011;5220;43.192;23.284;2023-06-10T02:23:40;6.20;;;4.32;;
10347;SDS011;5220;43.192;23.284;2023-06-10T02:26:07;6.90;;;4.50;;
10347;SDS011;5220;43.192;23.284;2023-06-10T02:28:35;6.22;;;4.53;;
10347;SDS011;5220;43.192;23.284;2023-06-10T02:31:02;6.22;;;3.70;;
10347;SDS011;5220;43.192;23.284;2023-06-10T02:33:28;5.93;;;4.38;;
10347;SDS011;5220;43.192;23.284;2023-06-10T02:35:55;8.23;;;3.95;;
10347;SDS011;5220;43.192;23.284;2023-06-10T02:38:22;13.32;;;4.18;;
10347;SDS011;5220;43.192;23.284;2023-06-10T02:40:49;4.28;;;3.88;;
10347;SDS011;5220;43.192;23.284;2023-06-10T02:43:15;4.70;;;3.88;;
10347;SDS011;5220;43.192;23.284;2023-06-10T02:45:43;7.38;;;3.63;;
10347;SDS011;5220;43.192;23.284;2023-06-10T02:48:10;4.93;;;3.40;;
10347;SDS011;5220;43.192;23.284;2023-06-10T02:50:37;4.63;;;4.07;;
10347;SDS011;5220;43.192;23.284;2023-06-10T02:53:05;4.68;;;3.78;;
10347;SDS011;5220;43.192;23.284;2023-06-10T02:55:31;9.73;;;3.72;;
10347;SDS011;5220;43.192;23.284;2023-06-10T02:58:00;4.20;;;3.80;;
10347;SDS011;5220;43.192;23.284;2023-06-10T03:00:27;3.92;;;3.20;;
10347;SDS011;5220;43.192;23.284;2023-06-10T03:02:55;3.80;;;3.42;;
10347;SDS011;5220;43.192;23.284;2023-06-10T03:05:23;7.05;;;3.78;;
10347;SDS011;5220;43.192;23.284;2023-06-10T03:07:50;4.03;;;3.60;;
10347;SDS011;5220;43.192;23.284;2023-06-10T03:10:16;6.70;;;3.53;;
10347;SDS011;5220;43.192;23.284;2023-06-10T03:12:43;5.32;;;3.67;;
10347;SDS011;5220;43.192;23.284;2023-06-10T03:15:10;6.85;;;3.70;;
10347;SDS011;5220;43.192;23.284;2023-06-10T03:17:37;4.80;;;3.92;;
10347;SDS011;5220;43.192;23.284;2023-06-10T03:20:06;7.00;;;3.80;;
10347;SDS011;5220;43.192;23.284;2023-06-10T03:22:35;6.63;;;3.33;;
10347;SDS011;5220;43.192;23.284;2023-06-10T03:25:03;5.10;;;3.53;;
10347;SDS011;5220;43.192;23.284;2023-06-10T03:27:30;4.95;;;3.70;;
10347;SDS011;5220;43.192;23.284;2023-06-10T03:29:57;7.18;;;4.30;;
10347;SDS011;5220;43.192;23.284;2023-06-10T03:32:24;8.02;;;5.72;;
10347;SDS011;5220;43.192;23.284;2023-06-10T03:34:51;10.00;;;8.25;;
10347;SDS011;5220;43.192;23.284;2023-06-10T03:37:24;7.45;;;5.20;;
10347;SDS011;5220;43.192;23.284;2023-06-10T03:39:51;6.85;;;4.70;;
10347;SDS011;5220;43.192;23.284;2023-06-10T03:42:17;5.45;;;4.95;;
10347;SDS011;5220;43.192;23.284;2023-06-10T03:44:44;4.57;;;4.05;;
10347;SDS011;5220;43.192;23.284;2023-06-10T03:47:11;5.57;;;4.03;;
10347;SDS011;5220;43.192;23.284;2023-06-10T03:49:39;5.80;;;4.22;;
10347;SDS011;5220;43.192;23.284;2023-06-10T03:52:06;5.93;;;4.30;;
10347;SDS011;5220;43.192;23.284;2023-06-10T03:54:34;4.53;;;4.00;;
10347;SDS011;5220;43.192;23.284;2023-06-10T03:57:00;5.45;;;4.38;;
10347;SDS011;5220;43.192;23.284;2023-06-10T03:59:28;4.47;;;3.97;;
10347;SDS011;5220;43.192;23.284;2023-06-10T04:01:55;4.30;;;3.90;;
10347;SDS011;5220;43.192;23.284;2023-06-10T04:04:22;4.60;;;3.95;;
10347;SDS011;5220;43.192;23.284;2023-06-10T04:06:49;4.93;;;3.95;;
10347;SDS011;5220;43.192;23.284;2023-06-10T04:09:16;6.85;;;4.15;;
10347;SDS011;5220;43.192;23.284;2023-06-10T04:11:44;7.68;;;4.15;;
10347;SDS011;5220;43.192;23.284;2023-06-10T04:14:11;6.30;;;3.80;;
10347;SDS011;5220;43.192;23.284;2023-06-10T04:16:38;4.40;;;4.00;;
10347;SDS011;5220;43.192;23.284;2023-06-10T04:19:05;4.65;;;4.25;;
10347;SDS011;5220;43.192;23.284;2023-06-10T04:21:32;6.22;;;4.53;;
10347;SDS011;5220;43.192;23.284;2023-06-10T04:23:59;5.13;;;4.65;;
10347;SDS011;5220;43.192;23.284;2023-06-10T04:26:25;5.75;;;4.97;;
10347;SDS011;5220;43.192;23.284;2023-06-10T04:28:54;7.20;;;4.85;;
10347;SDS011;5220;43.192;23.284;2023-06-10T04:31:21;5.60;;;4.60;;
10347;SDS011;5220;43.192;23.284;2023-06-10T04:33:48;9.25;;;4.38;;
10347;SDS011;5220;43.192;23.284;2023-06-10T04:36:15;5.55;;;4.05;;
10347;SDS011;5220;43.192;23.284;2023-06-10T04:38:41;8.73;;;5.03;;
10347;SDS011;5220;43.192;23.284;2023-06-10T04:41:08;4.97;;;4.47;;
10347;SDS011;5220;43.192;23.284;2023-06-10T04:43:35;9.32;;;5.18;;
10347;SDS011;5220;43.192;23.284;2023-06-10T04:46:03;6.65;;;4.70;;
10347;SDS011;5220;43.192;23.284;2023-06-10T04:48:30;5.82;;;4.22;;
10347;SDS011;5220;43.192;23.284;2023-06-10T04:50:58;5.65;;;4.47;;
10347;SDS011;5220;43.192;23.284;2023-06-10T04:53:25;4.53;;;4.05;;
10347;SDS011;5220;43.192;23.284;2023-06-10T04:55:53;6.60;;;4.32;;
10347;SDS011;5220;43.192;23.284;2023-06-10T04:58:20;7.35;;;4.60;;
10347;SDS011;5220;43.192;23.284;2023-06-10T05:00:47;6.18;;;5.00;;
10347;SDS011;5220;43.192;23.284;2023-06-10T05:03:15;5.75;;;4.90;;
10347;SDS011;5220;43.192;23.284;2023-06-10T05:05:43;4.85;;;4.35;;
10347;SDS011;5220;43.192;23.284;2023-06-10T05:08:09;5.25;;;4.60;;
10347;SDS011;5220;43.192;23.284;2023-06-10T05:10:36;4.60;;;3.78;;
10347;SDS011;5220;43.192;23.284;2023-06-10T05:13:03;4.97;;;4.35;;
10347;SDS011;5220;43.192;23.284;2023-06-10T05:15:30;4.78;;;4.25;;
10347;SDS011;5220;43.192;23.284;2023-06-10T05:17:58;5.90;;;4.82;;
10347;SDS011;5220;43.192;23.284;2023-06-10T05:20:26;5.15;;;4.25;;
10347;SDS011;5220;43.192;23.284;2023-06-10T05:22:53;3.63;;;3.30;;
10347;SDS011;5220;43.192;23.284;2023-06-10T05:25:20;3.78;;;3.13;;
10347;SDS011;5220;43.192;23.284;2023-06-10T05:27:47;3.95;;;3.47;;
10347;SDS011;5220;43.192;23.284;2023-06-10T05:30:13;4.55;;;3.20;;
10347;SDS011;5220;43.192;23.284;2023-06-10T05:32:40;3.50;;;3.15;;
10347;SDS011;5220;43.192;23.284;2023-06-10T05:35:07;5.22;;;3.78;;
10347;SDS011;5220;43.192;23.284;2023-06-10T05:37:35;4.28;;;3.88;;
10347;SDS011;5220;43.192;23.284;2023-06-10T05:40:02;4.57;;;4.00;;
10347;SDS011;5220;43.192;23.284;2023-06-10T05:42:30;5.88;;;4.35;;
10347;SDS011;5220;43.192;23.284;2023-06-10T05:44:57;5.00;;;3.55;;
10347;SDS011;5220;43.192;23.284;2023-06-10T05:47:23;5.88;;;4.28;;
10347;SDS011;5220;43.192;23.284;2023-06-10T05:49:50;6.22;;;4.25;;
10347;SDS011;5220;43.192;23.284;2023-06-10T05:52:17;7.35;;;4.80;;
10347;SDS011;5220;43.192;23.284;2023-06-10T05:54:45;8.10;;;4.68;;
10347;SDS011;5220;43.192;23.284;2023-06-10T05:57:12;9.07;;;4.78;;
10347;SDS011;5220;43.192;23.284;2023-06-10T05:59:39;6.32;;;4.38;;
10347;SDS011;5220;43.192;23.284;2023-06-10T06:02:05;5.22;;;3.80;;
10347;SDS011;5220;43.192;23.284;2023-06-10T06:04:33;5.82;;;4.25;;
10347;SDS011;5220;43.192;23.284;2023-06-10T06:07:01;5.18;;;3.95;;
10347;SDS011;5220;43.192;23.284;2023-06-10T06:09:27;9.85;;;4.05;;
10347;SDS011;5220;43.192;23.284;2023-06-10T06:11:55;7.07;;;4.90;;
10347;SDS011;5220;43.192;23.284;2023-06-10T06:14:22;5.93;;;3.88;;
10347;SDS011;5220;43.192;23.284;2023-06-10T06:16:49;7.38;;;3.90;;
10347;SDS011;5220;43.192;23.284;2023-06-10T06:19:16;4.53;;;4.13;;
10347;SDS011;5220;43.192;23.284;2023-06-10T06:21:43;5.47;;;4.15;;
10347;SDS011;5220;43.192;23.284;2023-06-10T06:24:09;7.03;;;4.22;;
10347;SDS011;5220;43.192;23.284;2023-06-10T06:26:36;4.22;;;3.83;;
10347;SDS011;5220;43.192;23.284;2023-06-10T06:29:04;4.60;;;4.15;;
10347;SDS011;5220;43.192;23.284;2023-06-10T06:31:31;4.70;;;3.50;;
10347;SDS011;5220;43.192;23.284;2023-06-10T06:33:58;4.10;;;3.70;;
10347;SDS011;5220;43.192;23.284;2023-06-10T06:36:24;4.45;;;3.70;;
10347;SDS011;5220;43.192;23.284;2023-06-10T06:38:52;6.00;;;3.60;;
10347;SDS011;5220;43.192;23.284;2023-06-10T06:41:19;7.45;;;4.15;;
10347;SDS011;5220;43.192;23.284;2023-06-10T06:43:47;6.18;;;3.72;;
10347;SDS011;5220;43.192;23.284;2023-06-10T06:46:17;3.88;;;3.58;;
10347;SDS011;5220;43.192;23.284;2023-06-10T06:48:43;6.72;;;3.53;;
10347;SDS011;5220;43.192;23.284;2023-06-10T06:51:10;4.22;;;3.83;;
10347;SDS011;5220;43.192;23.284;2023-06-10T06:53:37;4.90;;;3.47;;
10347;SDS011;5220;43.192;23.284;2023-06-10T06:56:10;3.42;;;3.20;;
10347;SDS011;5220;43.192;23.284;2023-06-10T06:58:37;4.82;;;3.70;;
10347;SDS011;5220;43.192;23.284;2023-06-10T07:01:04;4.32;;;3.50;;
10347;SDS011;5220;43.192;23.284;2023-06-10T07:03:32;3.22;;;2.80;;
10347;SDS011;5220;43.192;23.284;2023-06-10T07:06:00;3.20;;;2.90;;
10347;SDS011;5220;43.192;23.284;2023-06-10T07:08:26;3.35;;;3.05;;
10347;SDS011;5220;43.192;23.284;2023-06-10T07:10:53;4.43;;;3.40;;
10347;SDS011;5220;43.192;23.284;2023-06-10T07:13:20;3.00;;;2.70;;
10347;SDS011;5220;43.192;23.284;2023-06-10T07:15:47;3.42;;;3.00;;
10347;SDS011;5220;43.192;23.284;2023-06-10T07:18:14;5.05;;;3.33;;
10347;SDS011;5220;43.192;23.284;2023-06-10T07:20:43;4.65;;;3.20;;
10347;SDS011;5220;43.192;23.284;2023-06-10T07:23:10;4.25;;;3.63;;
10347;SDS011;5220;43.192;23.284;2023-06-10T07:25:38;5.00;;;3.03;;
10347;SDS011;5220;43.192;23.284;2023-06-10T07:28:04;3.85;;;3.38;;
10347;SDS011;5220;43.192;23.284;2023-06-10T07:30:31;4.03;;;3.70;;
10347;SDS011;5220;43.192;23.284;2023-06-10T07:32:58;6.60;;;3.35;;
10347;SDS011;5220;43.192;23.284;2023-06-10T07:35:24;3.72;;;3.22;;
10347;SDS011;5220;43.192;23.284;2023-06-10T07:37:52;6.50;;;3.30;;
10347;SDS011;5220;43.192;23.284;2023-06-10T07:40:19;7.20;;;4.35;;
10347;SDS011;5220;43.192;23.284;2023-06-10T07:42:46;6.38;;;3.40;;
10347;SDS011;5220;43.192;23.284;2023-06-10T07:45:15;4.20;;;2.90;;
10347;SDS011;5220;43.192;23.284;2023-06-10T07:47:42;5.97;;;3.45;;
10347;SDS011;5220;43.192;23.284;2023-06-10T07:50:09;3.63;;;2.90;;
10347;SDS011;5220;43.192;23.284;2023-06-10T07:52:36;3.50;;;3.20;;
10347;SDS011;5220;43.192;23.284;2023-06-10T07:55:04;3.72;;;2.90;;
10347;SDS011;5220;43.192;23.284;2023-06-10T07:57:31;3.80;;;3.28;;
10347;SDS011;5220;43.192;23.284;2023-06-10T08:00:01;5.43;;;3.33;;
10347;SDS011;5220;43.192;23.284;2023-06-10T08:02:29;4.65;;;3.47;;
10347;SDS011;5220;43.192;23.284;2023-06-10T08:04:56;3.05;;;2.78;;
10347;SDS011;5220;43.192;23.284;2023-06-10T08:07:22;4.78;;;3.25;;
10347;SDS011;5220;43.192;23.284;2023-06-10T08:09:50;2.85;;;2.65;;
10347;SDS011;5220;43.192;23.284;2023-06-10T08:12:18;3.78;;;2.80;;
10347;SDS011;5220;43.192;23.284;2023-06-10T08:14:45;3.20;;;2.95;;
10347;SDS011;5220;43.192;23.284;2023-06-10T08:19:41;4.07;;;2.90;;
10347;SDS011;5220;43.192;23.284;2023-06-10T08:22:08;3.42;;;2.88;;
10347;SDS011;5220;43.192;23.284;2023-06-10T08:24:38;3.55;;;2.80;;
10347;SDS011;5220;43.192;23.284;2023-06-10T08:27:06;7.30;;;3.22;;
10347;SDS011;5220;43.192;23.284;2023-06-10T08:29:35;5.88;;;3.40;;
10347;SDS011;5220;43.192;23.284;2023-06-10T08:32:04;3.58;;;3.25;;
10347;SDS011;5220;43.192;23.284;2023-06-10T08:34:33;4.72;;;3.42;;
10347;SDS011;5220;43.192;23.284;2023-06-10T08:37:01;5.32;;;3.90;;
10347;SDS011;5220;43.192;23.284;2023-06-10T08:39:28;5.28;;;3.40;;
10347;SDS011;5220;43.192;23.284;2023-06-10T08:42:05;5.50;;;4.80;;
10347;SDS011;5220;43.192;23.284;2023-06-10T08:44:39;5.68;;;4.22;;
10347;SDS011;5220;43.192;23.284;2023-06-10T08:47:11;5.70;;;4.38;;
10347;SDS011;5220;43.192;23.284;2023-06-10T08:49:41;3.83;;;3.45;;
10347;SDS011;5220;43.192;23.284;2023-06-10T08:52:11;6.47;;;3.30;;
10347;SDS011;5220;43.192;23.284;2023-06-10T08:54:42;8.80;;;4.40;;
10347;SDS011;5220;43.192;23.284;2023-06-10T08:57:12;4.35;;;3.53;;
10347;SDS011;5220;43.192;23.284;2023-06-10T08:59:43;3.25;;;3.05;;
10347;SDS011;5220;43.192;23.284;2023-06-10T09:02:10;5.28;;;3.30;;
10347;SDS011;5220;43.192;23.284;2023-06-10T09:04:38;6.32;;;3.28;;
10347;SDS011;5220;43.192;23.284;2023-06-10T09:07:05;6.50;;;4.78;;
10347;SDS011;5220;43.192;23.284;2023-06-10T09:09:33;5.22;;;3.70;;
10347;SDS011;5220;43.192;23.284;2023-06-10T09:12:01;5.25;;;3.60;;
10347;SDS011;5220;43.192;23.284;2023-06-10T09:14:28;4.72;;;3.60;;
10347;SDS011;5220;43.192;23.284;2023-06-10T09:16:57;6.85;;;4.28;;
10347;SDS011;5220;43.192;23.284;2023-06-10T09:19:23;3.78;;;2.95;;
10347;SDS011;5220;43.192;23.284;2023-06-10T09:21:52;4.78;;;3.45;;
10347;SDS011;5220;43.192;23.284;2023-06-10T09:24:20;3.47;;;3.17;;
10347;SDS011;5220;43.192;23.284;2023-06-10T09:26:48;5.10;;;4.03;;
10347;SDS011;5220;43.192;23.284;2023-06-10T09:29:17;5.43;;;3.10;;
10347;SDS011;5220;43.192;23.284;2023-06-10T09:31:43;6.88;;;3.30;;
10347;SDS011;5220;43.192;23.284;2023-06-10T09:34:12;3.47;;;3.10;;
10347;SDS011;5220;43.192;23.284;2023-06-10T09:36:40;3.85;;;3.10;;
10347;SDS011;5220;43.192;23.284;2023-06-10T09:39:13;4.05;;;3.30;;
10347;SDS011;5220;43.192;23.284;2023-06-10T09:41:42;9.38;;;3.80;;
10347;SDS011;5220;43.192;23.284;2023-06-10T09:44:11;5.20;;;3.78;;
10347;SDS011;5220;43.192;23.284;2023-06-10T09:46:40;3.30;;;3.00;;
10347;SDS011;5220;43.192;23.284;2023-06-10T09:49:08;4.32;;;2.92;;
10347;SDS011;5220;43.192;23.284;2023-06-10T09:51:36;3.42;;;3.03;;
10347;SDS011;5220;43.192;23.284;2023-06-10T09:54:03;4.53;;;3.20;;
10347;SDS011;5220;43.192;23.284;2023-06-10T09:56:33;5.80;;;3.30;;
10347;SDS011;5220;43.192;23.284;2023-06-10T09:59:01;5.65;;;3.60;;
10347;SDS011;5220;43.192;23.284;2023-06-10T10:01:30;4.70;;;3.10;;
10347;SDS011;5220;43.192;23.284;2023-06-10T10:03:58;5.75;;;2.75;;
10347;SDS011;5220;43.192;23.284;2023-06-10T10:06:25;3.97;;;3.33;;
10347;SDS011;5220;43.192;23.284;2023-06-10T10:08:53;3.78;;;3.47;;
10347;SDS011;5220;43.192;23.284;2023-06-10T10:11:21;4.60;;;3.88;;
10347;SDS011;5220;43.192;23.284;2023-06-10T10:13:49;5.35;;;3.40;;
10347;SDS011;5220;43.192;23.284;2023-06-10T10:16:18;5.65;;;3.10;;
10347;SDS011;5220;43.192;23.284;2023-06-10T10:18:47;3.28;;;2.85;;
10347;SDS011;5220;43.192;23.284;2023-06-10T10:21:21;5.68;;;3.17;;
10347;SDS011;5220;43.192;23.284;2023-06-10T10:23:52;5.10;;;3.22;;
10347;SDS011;5220;43.192;23.284;2023-06-10T10:26:27;3.30;;;3.00;;
10347;SDS011;5220;43.192;23.284;2023-06-10T10:28:58;3.58;;;3.28;;
10347;SDS011;5220;43.192;23.284;2023-06-10T10:31:34;3.83;;;3.50;;
10347;SDS011;5220;43.192;23.284;2023-06-10T10:34:02;5.50;;;3.67;;
10347;SDS011;5220;43.192;23.284;2023-06-10T10:36:33;5.50;;;3.85;;
10347;SDS011;5220;43.192;23.284;2023-06-10T10:39:02;5.75;;;2.75;;
10347;SDS011;5220;43.192;23.284;2023-06-10T10:41:30;4.07;;;2.97;;
10347;SDS011;5220;43.192;23.284;2023-06-10T10:43:58;3.92;;;3.15;;
10347;SDS011;5220;43.192;23.284;2023-06-10T10:46:26;4.07;;;3.25;;
10347;SDS011;5220;43.192;23.284;2023-06-10T10:48:53;5.57;;;3.28;;
10347;SDS011;5220;43.192;23.284;2023-06-10T10:51:21;4.15;;;3.10;;
10347;SDS011;5220;43.192;23.284;2023-06-10T10:56:43;3.63;;;2.90;;
10347;SDS011;5220;43.192;23.284;2023-06-10T10:59:42;4.15;;;3.15;;
10347;SDS011;5220;43.192;23.284;2023-06-10T11:02:11;4.28;;;3.28;;
10347;SDS011;5220;43.192;23.284;2023-06-10T11:04:44;7.22;;;3.25;;
10347;SDS011;5220;43.192;23.284;2023-06-10T11:07:12;5.78;;;3.78;;
10347;SDS011;5220;43.192;23.284;2023-06-10T11:12:39;3.55;;;3.22;;
10347;SDS011;5220;43.192;23.284;2023-06-10T11:15:08;6.60;;;3.47;;
10347;SDS011;5220;43.192;23.284;2023-06-10T11:17:35;4.65;;;3.67;;
10347;SDS011;5220;43.192;23.284;2023-06-10T11:20:01;4.13;;;3.00;;
10347;SDS011;5220;43.192;23.284;2023-06-10T11:22:29;4.25;;;3.33;;
10347;SDS011;5220;43.192;23.284;2023-06-10T11:24:55;4.03;;;2.97;;
10347;SDS011;5220;43.192;23.284;2023-06-10T11:27:25;3.92;;;3.47;;
10347;SDS011;5220;43.192;23.284;2023-06-10T11:30:17;4.88;;;3.50;;
10347;SDS011;5220;43.192;23.284;2023-06-10T11:32:45;4.72;;;3.28;;
10347;SDS011;5220;43.192;23.284;2023-06-10T11:35:18;4.68;;;3.72;;
10347;SDS011;5220;43.192;23.284;2023-06-10T11:37:46;3.85;;;3.45;;
10347;SDS011;5220;43.192;23.284;2023-06-10T11:40:13;5.10;;;3.60;;
10347;SDS011;5220;43.192;23.284;2023-06-10T11:42:41;3.15;;;2.95;;
10347;SDS011;5220;43.192;23.284;2023-06-10T11:45:09;3.83;;;2.90;;
10347;SDS011;5220;43.192;23.284;2023-06-10T11:47:36;6.35;;;3.42;;
10347;SDS011;5220;43.192;23.284;2023-06-10T11:50:03;4.88;;;3.00;;
10347;SDS011;5220;43.192;23.284;2023-06-10T11:52:30;5.43;;;3.50;;
10347;SDS011;5220;43.192;23.284;2023-06-10T11:54:58;5.55;;;3.67;;
10347;SDS011;5220;43.192;23.284;2023-06-10T11:57:26;4.22;;;3.20;;
10347;SDS011;5220;43.192;23.284;2023-06-10T11:59:54;5.78;;;3.15;;
10347;SDS011;5220;43.192;23.284;2023-06-10T12:02:21;3.20;;;2.90;;
10347;SDS011;5220;43.192;23.284;2023-06-10T12:04:47;4.25;;;3.08;;
10347;SDS011;5220;43.192;23.284;2023-06-10T12:07:18;6.82;;;3.63;;
10347;SDS011;5220;43.192;23.284;2023-06-10T12:09:46;5.80;;;2.88;;
10347;SDS011;5220;43.192;23.284;2023-06-10T12:12:13;2.70;;;2.50;;
10347;SDS011;5220;43.192;23.284;2023-06-10T12:14:54;3.15;;;2.85;;
10347;SDS011;5220;43.192;23.284;2023-06-10T12:17:23;5.05;;;3.20;;
10347;SDS011;5220;43.192;23.284;2023-06-10T12:19:51;5.00;;;3.38;;
10347;SDS011;5220;43.192;23.284;2023-06-10T12:22:18;5.88;;;3.67;;
10347;SDS011;5220;43.192;23.284;2023-06-10T12:24:45;3.30;;;3.00;;
10347;SDS011;5220;43.192;23.284;2023-06-10T12:27:25;5.82;;;3.28;;
10347;SDS011;5220;43.192;23.284;2023-06-10T12:29:56;5.47;;;3.63;;
10347;SDS011;5220;43.192;23.284;2023-06-10T12:35:16;3.75;;;3.38;;
10347;SDS011;5220;43.192;23.284;2023-06-10T12:37:54;3.47;;;3.10;;
10347;SDS011;5220;43.192;23.284;2023-06-10T12:40:29;4.55;;;2.83;;
10347;SDS011;5220;43.192;23.284;2023-06-10T12:42:56;4.40;;;3.08;;
10347;SDS011;5220;43.192;23.284;2023-06-10T12:45:35;3.67;;;2.97;;
10347;SDS011;5220;43.192;23.284;2023-06-10T12:48:08;5.13;;;3.38;;
10347;SDS011;5220;43.192;23.284;2023-06-10T12:50:36;4.82;;;3.28;;
10347;SDS011;5220;43.192;23.284;2023-06-10T12:53:04;3.88;;;3.15;;
10347;SDS011;5220;43.192;23.284;2023-06-10T12:55:32;5.38;;;3.40;;
10347;SDS011;5220;43.192;23.284;2023-06-10T12:57:59;5.45;;;3.50;;
10347;SDS011;5220;43.192;23.284;2023-06-10T13:00:28;3.45;;;2.95;;
10347;SDS011;5220;43.192;23.284;2023-06-10T13:02:56;3.55;;;3.25;;
10347;SDS011;5220;43.192;23.284;2023-06-10T13:05:29;4.82;;;3.33;;
10347;SDS011;5220;43.192;23.284;2023-06-10T13:07:55;4.18;;;3.13;;
10347;SDS011;5220;43.192;23.284;2023-06-10T13:10:22;3.78;;;3.28;;
10347;SDS011;5220;43.192;23.284;2023-06-10T13:12:50;3.42;;;3.13;;
10347;SDS011;5220;43.192;23.284;2023-06-10T13:15:19;5.22;;;2.90;;
10347;SDS011;5220;43.192;23.284;2023-06-10T13:17:49;2.90;;;2.67;;
10347;SDS011;5220;43.192;23.284;2023-06-10T13:20:19;5.15;;;3.40;;
10347;SDS011;5220;43.192;23.284;2023-06-10T13:22:46;5.13;;;3.35;;
10347;SDS011;5220;43.192;23.284;2023-06-10T13:25:15;5.20;;;2.97;;
10347;SDS011;5220;43.192;23.284;2023-06-10T13:27:49;7.35;;;3.83;;
10347;SDS011;5220;43.192;23.284;2023-06-10T13:30:16;4.22;;;3.45;;
10347;SDS011;5220;43.192;23.284;2023-06-10T13:32:43;3.30;;;3.00;;
10347;SDS011;5220;43.192;23.284;2023-06-10T13:35:11;5.80;;;3.10;;
10347;SDS011;5220;43.192;23.284;2023-06-10T13:37:44;7.82;;;3.10;;
10347;SDS011;5220;43.192;23.284;2023-06-10T13:40:11;3.53;;;3.20;;
10347;SDS011;5220;43.192;23.284;2023-06-10T13:42:38;3.58;;;2.90;;
10347;SDS011;5220;43.192;23.284;2023-06-10T13:45:06;5.25;;;3.30;;
10347;SDS011;5220;43.192;23.284;2023-06-10T13:47:34;3.63;;;3.13;;
10347;SDS011;5220;43.192;23.284;2023-06-10T13:50:02;9.57;;;3.25;;
10347;SDS011;5220;43.192;23.284;2023-06-10T13:52:29;3.17;;;2.85;;
10347;SDS011;5220;43.192;23.284;2023-06-10T13:54:57;3.67;;;3.30;;
10347;SDS011;5220;43.192;23.284;2023-06-10T13:57:24;3.60;;;3.30;;
10347;SDS011;5220;43.192;23.284;2023-06-10T13:59:51;3.38;;;3.08;;
10347;SDS011;5220;43.192;23.284;2023-06-10T14:02:18;4.47;;;3.13;;
10347;SDS011;5220;43.192;23.284;2023-06-10T14:04:45;3.70;;;3.40;;
10347;SDS011;5220;43.192;23.284;2023-06-10T14:07:12;5.57;;;3.40;;
10347;SDS011;5220;43.192;23.284;2023-06-10T14:09:38;4.80;;;3.33;;
10347;SDS011;5220;43.192;23.284;2023-06-10T14:12:07;7.85;;;4.03;;
10347;SDS011;5220;43.192;23.284;2023-06-10T14:14:34;13.43;;;7.38;;
10347;SDS011;5220;43.192;23.284;2023-06-10T14:17:01;17.27;;;8.60;;
10347;SDS011;5220;43.192;23.284;2023-06-10T14:19:30;8.52;;;4.85;;
10347;SDS011;5220;43.192;23.284;2023-06-10T14:21:56;3.63;;;3.28;;
10347;SDS011;5220;43.192;23.284;2023-06-10T14:24:23;6.28;;;4.60;;
10347;SDS011;5220;43.192;23.284;2023-06-10T14:26:50;5.18;;;4.28;;
10347;SDS011;5220;43.192;23.284;2023-06-10T14:29:18;7.60;;;3.92;;
10347;SDS011;5220;43.192;23.284;2023-06-10T14:31:45;8.05;;;3.58;;
10347;SDS011;5220;43.192;23.284;2023-06-10T14:34:12;9.48;;;4.18;;
10347;SDS011;5220;43.192;23.284;2023-06-10T14:36:39;3.78;;;3.45;;
10347;SDS011;5220;43.192;23.284;2023-06-10T14:39:06;6.20;;;3.75;;
10347;SDS011;5220;43.192;23.284;2023-06-10T14:41:33;3.97;;;3.42;;
10347;SDS011;5220;43.192;23.284;2023-06-10T14:43:59;3.85;;;3.45;;
10347;SDS011;5220;43.192;23.284;2023-06-10T14:46:27;3.95;;;3.58;;
10347;SDS011;5220;43.192;23.284;2023-06-10T14:48:54;5.70;;;3.60;;
10347;SDS011;5220;43.192;23.284;2023-06-10T14:51:21;4.88;;;3.42;;
10347;SDS011;5220;43.192;23.284;2023-06-10T14:53:47;4.90;;;3.45;;
10347;SDS011;5220;43.192;23.284;2023-06-10T14:56:15;4.57;;;2.85;;
10347;SDS011;5220;43.192;23.284;2023-06-10T14:58:42;5.40;;;3.53;;
10347;SDS011;5220;43.192;23.284;2023-06-10T15:01:09;3.47;;;3.17;;
10347;SDS011;5220;43.192;23.284;2023-06-10T15:03:37;4.55;;;3.50;;